sensor_id;sensor_type;location;lat;lon;timestamp;pressure;altitude;pressure_sealevel;temperature;humidity
3082;BME280;1551;51.046;7.010;2023-07-16T00:00:03;100332.53;;;22.71;66.76
3082;BME280;1551;51.046;7.010;2023-07-16T00:02:55;100335.16;;;22.71;66.64
3082;BME280;1551;51.046;7.010;2023-07-16T00:05:44;100348.81;;;22.75;66.51
3082;BME280;1551;51.046;7.010;2023-07-16T00:08:33;100352.56;;;22.71;66.85
3082;BME280;1551;51.046;7.010;2023-07-16T00:11:21;100354.75;;;22.64;66.78
3082;BME280;1551;51.046;7.010;2023-07-16T00:14:11;100353.72;;;22.67;66.86
3082;BME280;1551;51.046;7.010;2023-07-16T00:17:00;100357.25;;;22.66;66.87
3082;BME280;1551;51.046;7.010;2023-07-16T00:19:49;100364.44;;;22.62;66.96
3082;BME280;1551;51.046;7.010;2023-07-16T00:22:38;100373.34;;;22.58;67.12
3082;BME280;1551;51.046;7.010;2023-07-16T00:25:30;100363.09;;;22.42;67.13
3082;BME280;1551;51.046;7.010;2023-07-16T00:28:19;100371.97;;;22.26;67.50
3082;BME280;1551;51.046;7.010;2023-07-16T00:31:09;100370.59;;;22.20;67.43
3082;BME280;1551;51.046;7.010;2023-07-16T00:33:58;100383.63;;;22.20;67.36
3082;BME280;1551;51.046;7.010;2023-07-16T00:36:48;100373.13;;;22.08;67.36
3082;BME280;1551;51.046;7.010;2023-07-16T00:39:37;100374.34;;;22.02;67.69
3082;BME280;1551;51.046;7.010;2023-07-16T00:42:26;100374.06;;;21.92;67.74
3082;BME280;1551;51.046;7.010;2023-07-16T00:45:15;100381.69;;;21.81;67.92
3082;BME280;1551;51.046;7.010;2023-07-16T00:48:05;100392.28;;;21.64;68.25
3082;BME280;1551;51.046;7.010;2023-07-16T00:50:55;100378.16;;;21.54;68.84
3082;BME280;1551;51.046;7.010;2023-07-16T00:53:44;100385.13;;;21.54;68.68
3082;BME280;1551;51.046;7.010;2023-07-16T00:56:33;100373.31;;;21.48;69.30
3082;BME280;1551;51.046;7.010;2023-07-16T00:59:24;100384.09;;;21.42;69.15
3082;BME280;1551;51.046;7.010;2023-07-16T01:02:13;100378.59;;;21.33;69.51
3082;BME280;1551;51.046;7.010;2023-07-16T01:05:02;100381.47;;;21.28;69.69
3082;BME280;1551;51.046;7.010;2023-07-16T01:07:59;100383.97;;;21.30;69.54
3082;BME280;1551;51.046;7.010;2023-07-16T01:10:51;100379.16;;;21.23;69.72
3082;BME280;1551;51.046;7.010;2023-07-16T01:13:40;100380.34;;;21.18;69.54
3082;BME280;1551;51.046;7.010;2023-07-16T01:16:29;100379.44;;;21.19;69.77
3082;BME280;1551;51.046;7.010;2023-07-16T01:19:19;100388.50;;;21.12;69.65
3082;BME280;1551;51.046;7.010;2023-07-16T01:22:28;100382.63;;;21.08;69.69
3082;BME280;1551;51.046;7.010;2023-07-16T01:28:49;100386.19;;;21.07;69.94
3082;BME280;1551;51.046;7.010;2023-07-16T01:31:43;100385.56;;;21.02;69.91
3082;BME280;1551;51.046;7.010;2023-07-16T01:34:34;100390.63;;;21.05;69.42
3082;BME280;1551;51.046;7.010;2023-07-16T01:37:25;100392.13;;;21.09;69.40
3082;BME280;1551;51.046;7.010;2023-07-16T01:40:14;100389.03;;;21.03;69.33
3082;BME280;1551;51.046;7.010;2023-07-16T01:43:03;100394.16;;;21.04;69.39
3082;BME280;1551;51.046;7.010;2023-07-16T01:45:52;100389.78;;;21.05;69.56
3082;BME280;1551;51.046;7.010;2023-07-16T01:48:41;100402.81;;;21.05;68.93
3082;BME280;1551;51.046;7.010;2023-07-16T01:51:30;100403.97;;;20.99;68.60
3082;BME280;1551;51.046;7.010;2023-07-16T01:54:19;100404.06;;;20.98;67.99
3082;BME280;1551;51.046;7.010;2023-07-16T01:57:08;100414.47;;;20.98;68.01
3082;BME280;1551;51.046;7.010;2023-07-16T01:59:57;100414.38;;;20.99;67.84
3082;BME280;1551;51.046;7.010;2023-07-16T02:02:46;100411.03;;;20.97;67.85
3082;BME280;1551;51.046;7.010;2023-07-16T02:05:37;100412.88;;;20.95;67.74
3082;BME280;1551;51.046;7.010;2023-07-16T02:08:26;100420.69;;;20.95;67.84
3082;BME280;1551;51.046;7.010;2023-07-16T02:11:15;100427.81;;;20.92;67.59
3082;BME280;1551;51.046;7.010;2023-07-16T02:14:04;100422.69;;;20.90;67.78
3082;BME280;1551;51.046;7.010;2023-07-16T02:16:53;100425.03;;;20.95;67.44
3082;BME280;1551;51.046;7.010;2023-07-16T02:19:42;100431.53;;;20.88;67.61
3082;BME280;1551;51.046;7.010;2023-07-16T02:22:34;100439.47;;;20.85;67.91
3082;BME280;1551;51.046;7.010;2023-07-16T02:25:23;100443.34;;;20.78;67.81
3082;BME280;1551;51.046;7.010;2023-07-16T02:28:14;100442.88;;;20.71;68.30
3082;BME280;1551;51.046;7.010;2023-07-16T02:31:03;100441.78;;;20.60;68.43
3082;BME280;1551;51.046;7.010;2023-07-16T02:33:52;100453.28;;;20.55;68.65
3082;BME280;1551;51.046;7.010;2023-07-16T02:36:41;100457.91;;;20.50;69.13
3082;BME280;1551;51.046;7.010;2023-07-16T02:39:30;100458.66;;;20.52;69.08
3082;BME280;1551;51.046;7.010;2023-07-16T02:42:19;100471.00;;;20.49;68.76
3082;BME280;1551;51.046;7.010;2023-07-16T02:45:08;100470.56;;;20.41;68.22
3082;BME280;1551;51.046;7.010;2023-07-16T02:47:58;100468.72;;;20.43;67.95
3082;BME280;1551;51.046;7.010;2023-07-16T02:50:47;100475.91;;;20.38;67.62
3082;BME280;1551;51.046;7.010;2023-07-16T02:53:36;100474.50;;;20.32;67.37
3082;BME280;1551;51.046;7.010;2023-07-16T02:56:25;100492.94;;;20.28;67.23
3082;BME280;1551;51.046;7.010;2023-07-16T02:59:14;100479.94;;;20.28;66.41
3082;BME280;1551;51.046;7.010;2023-07-16T03:02:03;100486.72;;;20.30;65.82
3082;BME280;1551;51.046;7.010;2023-07-16T03:04:52;100486.03;;;20.27;65.14
3082;BME280;1551;51.046;7.010;2023-07-16T03:07:43;100473.31;;;20.22;64.60
3082;BME280;1551;51.046;7.010;2023-07-16T03:10:32;100488.03;;;20.22;65.03
3082;BME280;1551;51.046;7.010;2023-07-16T03:13:20;100486.66;;;20.15;65.55
3082;BME280;1551;51.046;7.010;2023-07-16T03:16:09;100490.34;;;20.11;65.82
3082;BME280;1551;51.046;7.010;2023-07-16T03:18:58;100500.13;;;20.06;65.79
3082;BME280;1551;51.046;7.010;2023-07-16T03:21:47;100505.66;;;20.00;65.68
3082;BME280;1551;51.046;7.010;2023-07-16T03:24:39;100508.72;;;19.90;65.70
3082;BME280;1551;51.046;7.010;2023-07-16T03:27:28;100510.72;;;19.85;65.98
3082;BME280;1551;51.046;7.010;2023-07-16T03:30:21;100509.94;;;19.83;65.86
3082;BME280;1551;51.046;7.010;2023-07-16T03:33:10;100512.78;;;19.79;66.02
3082;BME280;1551;51.046;7.010;2023-07-16T03:35:59;100519.91;;;19.75;66.07
3082;BME280;1551;51.046;7.010;2023-07-16T03:38:48;100523.41;;;19.74;65.69
3082;BME280;1551;51.046;7.010;2023-07-16T03:41:37;100526.94;;;19.73;65.76
3082;BME280;1551;51.046;7.010;2023-07-16T03:44:28;100529.53;;;19.73;65.49
3082;BME280;1551;51.046;7.010;2023-07-16T03:47:17;100528.59;;;19.74;65.41
3082;BME280;1551;51.046;7.010;2023-07-16T03:50:07;100539.16;;;19.71;65.32
3082;BME280;1551;51.046;7.010;2023-07-16T03:52:56;100543.50;;;19.71;65.39
3082;BME280;1551;51.046;7.010;2023-07-16T03:55:45;100547.94;;;19.69;65.46
3082;BME280;1551;51.046;7.010;2023-07-16T03:58:34;100548.75;;;19.69;65.36
3082;BME280;1551;51.046;7.010;2023-07-16T04:01:25;100553.03;;;19.70;65.25
3082;BME280;1551;51.046;7.010;2023-07-16T04:04:14;100555.56;;;19.72;65.34
3082;BME280;1551;51.046;7.010;2023-07-16T04:07:03;100558.09;;;19.73;65.29
3082;BME280;1551;51.046;7.010;2023-07-16T04:09:52;100565.03;;;19.73;64.95
3082;BME280;1551;51.046;7.010;2023-07-16T04:12:41;100570.75;;;19.79;64.72
3082;BME280;1551;51.046;7.010;2023-07-16T04:15:30;100560.13;;;19.84;64.43
3082;BME280;1551;51.046;7.010;2023-07-16T04:18:23;100568.09;;;19.81;64.58
3082;BME280;1551;51.046;7.010;2023-07-16T04:21:13;100572.13;;;19.86;64.31
3082;BME280;1551;51.046;7.010;2023-07-16T04:24:02;100573.13;;;19.84;64.01
3082;BME280;1551;51.046;7.010;2023-07-16T04:26:53;100583.28;;;19.88;63.70
3082;BME280;1551;51.046;7.010;2023-07-16T04:29:42;100575.34;;;19.92;63.78
3082;BME280;1551;51.046;7.010;2023-07-16T04:32:31;100582.81;;;19.98;63.61
3082;BME280;1551;51.046;7.010;2023-07-16T04:35:19;100584.59;;;19.97;63.84
3082;BME280;1551;51.046;7.010;2023-07-16T04:38:09;100591.47;;;19.98;63.39
3082;BME280;1551;51.046;7.010;2023-07-16T04:40:57;100589.72;;;19.99;63.79
3082;BME280;1551;51.046;7.010;2023-07-16T04:43:46;100597.03;;;20.08;63.56
3082;BME280;1551;51.046;7.010;2023-07-16T04:46:35;100599.94;;;20.19;63.50
3082;BME280;1551;51.046;7.010;2023-07-16T04:49:24;100609.50;;;20.35;63.53
3082;BME280;1551;51.046;7.010;2023-07-16T04:52:13;100598.72;;;20.43;63.41
3082;BME280;1551;51.046;7.010;2023-07-16T04:55:02;100603.41;;;20.52;63.45
3082;BME280;1551;51.046;7.010;2023-07-16T04:57:51;100608.97;;;20.62;63.74
3082;BME280;1551;51.046;7.010;2023-07-16T05:00:42;100611.41;;;20.49;64.08
3082;BME280;1551;51.046;7.010;2023-07-16T05:03:31;100623.94;;;20.41;64.50
3082;BME280;1551;51.046;7.010;2023-07-16T05:06:20;100619.53;;;20.26;65.00
3082;BME280;1551;51.046;7.010;2023-07-16T05:09:09;100624.72;;;20.26;65.22
3082;BME280;1551;51.046;7.010;2023-07-16T05:12:00;100628.53;;;20.36;64.96
3082;BME280;1551;51.046;7.010;2023-07-16T05:14:49;100636.72;;;20.28;64.97
3082;BME280;1551;51.046;7.010;2023-07-16T05:17:38;100649.94;;;20.24;64.71
3082;BME280;1551;51.046;7.010;2023-07-16T05:20:27;100635.28;;;20.23;63.96
3082;BME280;1551;51.046;7.010;2023-07-16T05:23:16;100637.16;;;20.19;63.48
3082;BME280;1551;51.046;7.010;2023-07-16T05:26:05;100635.31;;;20.21;63.08
3082;BME280;1551;51.046;7.010;2023-07-16T05:28:54;100632.72;;;20.21;62.67
3082;BME280;1551;51.046;7.010;2023-07-16T05:31:43;100643.22;;;20.20;62.59
3082;BME280;1551;51.046;7.010;2023-07-16T05:34:35;100644.47;;;20.30;62.30
3082;BME280;1551;51.046;7.010;2023-07-16T05:37:24;100647.88;;;20.30;61.96
3082;BME280;1551;51.046;7.010;2023-07-16T05:40:12;100643.06;;;20.40;62.01
3082;BME280;1551;51.046;7.010;2023-07-16T05:43:01;100649.63;;;20.47;61.70
3082;BME280;1551;51.046;7.010;2023-07-16T05:45:50;100660.19;;;20.44;61.38
3082;BME280;1551;51.046;7.010;2023-07-16T05:48:39;100663.78;;;20.41;61.02
3082;BME280;1551;51.046;7.010;2023-07-16T05:51:28;100669.22;;;20.37;60.62
3082;BME280;1551;51.046;7.010;2023-07-16T05:54:17;100669.38;;;20.34;60.07
3082;BME280;1551;51.046;7.010;2023-07-16T05:57:06;100684.97;;;20.34;59.67
3082;BME280;1551;51.046;7.010;2023-07-16T05:59:55;100673.44;;;20.39;59.87
3082;BME280;1551;51.046;7.010;2023-07-16T06:02:44;100670.13;;;20.53;59.29
3082;BME280;1551;51.046;7.010;2023-07-16T06:05:33;100667.19;;;20.59;58.94
3082;BME280;1551;51.046;7.010;2023-07-16T06:08:23;100670.16;;;20.69;58.17
3082;BME280;1551;51.046;7.010;2023-07-16T06:11:13;100658.69;;;20.73;58.01
3082;BME280;1551;51.046;7.010;2023-07-16T06:14:02;100674.38;;;20.71;58.51
3082;BME280;1551;51.046;7.010;2023-07-16T06:16:51;100662.47;;;20.67;57.98
3082;BME280;1551;51.046;7.010;2023-07-16T06:19:41;100661.75;;;20.64;57.49
3082;BME280;1551;51.046;7.010;2023-07-16T06:22:30;100665.56;;;20.74;57.26
3082;BME280;1551;51.046;7.010;2023-07-16T06:25:19;100668.84;;;20.77;56.92
3082;BME280;1551;51.046;7.010;2023-07-16T06:28:08;100663.44;;;20.97;56.47
3082;BME280;1551;51.046;7.010;2023-07-16T06:30:57;100679.94;;;21.13;55.81
3082;BME280;1551;51.046;7.010;2023-07-16T06:33:45;100683.91;;;21.03;55.83
3082;BME280;1551;51.046;7.010;2023-07-16T06:36:35;100675.34;;;21.01;55.16
3082;BME280;1551;51.046;7.010;2023-07-16T06:39:24;100682.31;;;21.18;55.08
3082;BME280;1551;51.046;7.010;2023-07-16T06:42:13;100704.63;;;21.22;54.69
3082;BME280;1551;51.046;7.010;2023-07-16T06:45:02;100655.38;;;21.02;54.56
3082;BME280;1551;51.046;7.010;2023-07-16T06:47:51;100702.41;;;21.47;53.56
3082;BME280;1551;51.046;7.010;2023-07-16T06:50:40;100713.16;;;21.72;52.57
3082;BME280;1551;51.046;7.010;2023-07-16T06:53:29;100703.31;;;21.93;51.70
3082;BME280;1551;51.046;7.010;2023-07-16T06:56:18;100699.09;;;21.90;51.65
3082;BME280;1551;51.046;7.010;2023-07-16T06:59:07;100706.44;;;21.68;51.62
3082;BME280;1551;51.046;7.010;2023-07-16T07:01:56;100709.53;;;21.90;51.58
3082;BME280;1551;51.046;7.010;2023-07-16T07:04:45;100700.69;;;21.93;51.15
3082;BME280;1551;51.046;7.010;2023-07-16T07:07:34;100709.44;;;22.08;49.77
3082;BME280;1551;51.046;7.010;2023-07-16T07:10:23;100716.28;;;22.24;48.98
3082;BME280;1551;51.046;7.010;2023-07-16T07:13:12;100707.22;;;22.45;48.54
3082;BME280;1551;51.046;7.010;2023-07-16T07:16:00;100702.25;;;22.71;47.70
3082;BME280;1551;51.046;7.010;2023-07-16T07:18:49;100692.72;;;22.70;47.45
3082;BME280;1551;51.046;7.010;2023-07-16T07:21:38;100697.88;;;22.99;46.92
3082;BME280;1551;51.046;7.010;2023-07-16T07:24:27;100700.28;;;23.02;46.50
3082;BME280;1551;51.046;7.010;2023-07-16T07:27:17;100707.06;;;23.19;46.45
3082;BME280;1551;51.046;7.010;2023-07-16T07:30:06;100698.78;;;22.98;46.30
3082;BME280;1551;51.046;7.010;2023-07-16T07:32:55;100707.66;;;23.10;46.22
3082;BME280;1551;51.046;7.010;2023-07-16T07:35:44;100699.16;;;23.49;45.04
3082;BME280;1551;51.046;7.010;2023-07-16T07:38:33;100703.09;;;23.68;44.60
3082;BME280;1551;51.046;7.010;2023-07-16T07:41:22;100700.47;;;23.95;44.15
3082;BME280;1551;51.046;7.010;2023-07-16T07:44:11;100697.41;;;24.15;44.02
3082;BME280;1551;51.046;7.010;2023-07-16T07:47:00;100703.06;;;24.09;43.25
3082;BME280;1551;51.046;7.010;2023-07-16T07:49:49;100702.66;;;23.88;43.61
3082;BME280;1551;51.046;7.010;2023-07-16T07:52:38;100708.03;;;24.26;42.84
3082;BME280;1551;51.046;7.010;2023-07-16T07:55:27;100708.75;;;24.28;42.00
3082;BME280;1551;51.046;7.010;2023-07-16T07:58:16;100711.03;;;23.67;43.23
3082;BME280;1551;51.046;7.010;2023-07-16T08:01:06;100719.31;;;23.47;43.31
3082;BME280;1551;51.046;7.010;2023-07-16T08:03:55;100711.13;;;23.92;43.03
3082;BME280;1551;51.046;7.010;2023-07-16T08:06:44;100717.63;;;23.99;42.22
3082;BME280;1551;51.046;7.010;2023-07-16T08:09:33;100712.31;;;24.27;42.17
3082;BME280;1551;51.046;7.010;2023-07-16T08:12:22;100718.59;;;24.37;42.20
3082;BME280;1551;51.046;7.010;2023-07-16T08:15:11;100726.84;;;24.19;41.76
3082;BME280;1551;51.046;7.010;2023-07-16T08:18:03;100714.00;;;24.41;41.94
3082;BME280;1551;51.046;7.010;2023-07-16T08:20:52;100716.69;;;24.91;40.83
3082;BME280;1551;51.046;7.010;2023-07-16T08:23:41;100722.53;;;24.95;40.29
3082;BME280;1551;51.046;7.010;2023-07-16T08:26:30;100720.13;;;24.79;40.93
3082;BME280;1551;51.046;7.010;2023-07-16T08:29:19;100715.31;;;24.98;40.99
3082;BME280;1551;51.046;7.010;2023-07-16T08:32:08;100718.88;;;25.59;39.72
3082;BME280;1551;51.046;7.010;2023-07-16T08:34:57;100718.38;;;25.54;39.07
3082;BME280;1551;51.046;7.010;2023-07-16T08:37:46;100719.72;;;25.10;39.85
3082;BME280;1551;51.046;7.010;2023-07-16T08:40:38;100720.09;;;25.30;39.63
3082;BME280;1551;51.046;7.010;2023-07-16T08:43:28;100715.91;;;25.02;39.84
3082;BME280;1551;51.046;7.010;2023-07-16T08:46:18;100719.53;;;25.50;39.19
3082;BME280;1551;51.046;7.010;2023-07-16T08:49:07;100720.91;;;25.55;38.37
3082;BME280;1551;51.046;7.010;2023-07-16T08:51:56;100720.41;;;25.74;38.35
3082;BME280;1551;51.046;7.010;2023-07-16T08:54:45;100725.38;;;25.53;38.44
3082;BME280;1551;51.046;7.010;2023-07-16T08:57:35;100730.06;;;25.24;38.28
3082;BME280;1551;51.046;7.010;2023-07-16T09:00:26;100720.91;;;25.30;38.20
3082;BME280;1551;51.046;7.010;2023-07-16T09:03:15;100740.41;;;25.39;38.06
3082;BME280;1551;51.046;7.010;2023-07-16T09:06:07;100728.13;;;25.52;37.64
3082;BME280;1551;51.046;7.010;2023-07-16T09:08:56;100747.94;;;25.79;36.73
3082;BME280;1551;51.046;7.010;2023-07-16T09:11:48;100736.41;;;25.82;36.50
3082;BME280;1551;51.046;7.010;2023-07-16T09:14:37;100734.91;;;26.14;36.01
3082;BME280;1551;51.046;7.010;2023-07-16T09:17:26;100736.28;;;26.66;35.99
3082;BME280;1551;51.046;7.010;2023-07-16T09:20:16;100742.41;;;26.42;36.22
3082;BME280;1551;51.046;7.010;2023-07-16T09:23:05;100735.91;;;26.24;36.06
3082;BME280;1551;51.046;7.010;2023-07-16T09:25:54;100737.72;;;26.70;35.04
3082;BME280;1551;51.046;7.010;2023-07-16T09:28:47;100748.25;;;26.35;35.67
3082;BME280;1551;51.046;7.010;2023-07-16T09:31:36;100736.91;;;25.63;36.64
3082;BME280;1551;51.046;7.010;2023-07-16T09:34:29;100741.31;;;25.86;36.23
3082;BME280;1551;51.046;7.010;2023-07-16T09:37:18;100742.84;;;26.25;36.32
3082;BME280;1551;51.046;7.010;2023-07-16T09:40:10;100739.25;;;26.26;35.93
3082;BME280;1551;51.046;7.010;2023-07-16T09:43:00;100750.22;;;26.20;36.38
3082;BME280;1551;51.046;7.010;2023-07-16T09:45:50;100753.34;;;25.65;36.44
3082;BME280;1551;51.046;7.010;2023-07-16T09:48:39;100763.28;;;25.73;37.09
3082;BME280;1551;51.046;7.010;2023-07-16T09:51:30;100744.69;;;26.12;36.54
3082;BME280;1551;51.046;7.010;2023-07-16T09:54:21;100751.75;;;25.75;37.10
3082;BME280;1551;51.046;7.010;2023-07-16T09:57:10;100742.44;;;25.22;38.38
3082;BME280;1551;51.046;7.010;2023-07-16T10:00:02;100741.44;;;25.85;37.64
3082;BME280;1551;51.046;7.010;2023-07-16T10:03:02;100737.69;;;26.00;37.78
3082;BME280;1551;51.046;7.010;2023-07-16T10:05:50;100746.13;;;25.92;38.07
3082;BME280;1551;51.046;7.010;2023-07-16T10:08:40;100750.66;;;26.84;36.46
3082;BME280;1551;51.046;7.010;2023-07-16T10:11:36;100742.28;;;26.33;36.68
3082;BME280;1551;51.046;7.010;2023-07-16T10:14:26;100751.09;;;26.08;37.24
3082;BME280;1551;51.046;7.010;2023-07-16T10:17:19;100743.16;;;25.97;37.56
3082;BME280;1551;51.046;7.010;2023-07-16T10:20:08;100755.84;;;26.27;37.13
3082;BME280;1551;51.046;7.010;2023-07-16T10:23:09;100753.66;;;26.44;36.91
3082;BME280;1551;51.046;7.010;2023-07-16T10:26:04;100750.53;;;27.29;36.01
3082;BME280;1551;51.046;7.010;2023-07-16T10:28:54;100749.00;;;26.94;36.13
3082;BME280;1551;51.046;7.010;2023-07-16T10:31:44;100755.19;;;27.15;36.13
3082;BME280;1551;51.046;7.010;2023-07-16T10:34:35;100766.53;;;26.47;36.42
3082;BME280;1551;51.046;7.010;2023-07-16T10:37:25;100749.00;;;26.59;36.35
3082;BME280;1551;51.046;7.010;2023-07-16T10:40:15;100746.59;;;27.35;35.80
3082;BME280;1551;51.046;7.010;2023-07-16T10:43:05;100756.75;;;27.06;35.42
3082;BME280;1551;51.046;7.010;2023-07-16T10:45:54;100760.13;;;26.51;35.38
3082;BME280;1551;51.046;7.010;2023-07-16T10:48:47;100760.72;;;26.20;36.50
3082;BME280;1551;51.046;7.010;2023-07-16T10:51:36;100760.72;;;26.55;36.12
3082;BME280;1551;51.046;7.010;2023-07-16T10:54:26;100763.50;;;26.30;36.37
3082;BME280;1551;51.046;7.010;2023-07-16T10:57:15;100764.75;;;26.01;36.98
3082;BME280;1551;51.046;7.010;2023-07-16T11:00:05;100769.56;;;25.83;37.37
3082;BME280;1551;51.046;7.010;2023-07-16T11:02:54;100771.41;;;25.93;37.09
3082;BME280;1551;51.046;7.010;2023-07-16T11:05:46;100773.91;;;25.71;37.12
3082;BME280;1551;51.046;7.010;2023-07-16T11:08:35;100770.00;;;26.13;36.76
3082;BME280;1551;51.046;7.010;2023-07-16T11:11:29;100770.69;;;26.39;35.82
3082;BME280;1551;51.046;7.010;2023-07-16T11:14:18;100758.50;;;26.38;36.03
3082;BME280;1551;51.046;7.010;2023-07-16T11:17:08;100767.72;;;26.89;35.73
3082;BME280;1551;51.046;7.010;2023-07-16T11:20:00;100770.25;;;26.91;35.82
3082;BME280;1551;51.046;7.010;2023-07-16T11:22:49;100783.94;;;26.37;36.09
3082;BME280;1551;51.046;7.010;2023-07-16T11:25:38;100772.56;;;26.60;35.29
3082;BME280;1551;51.046;7.010;2023-07-16T11:28:36;100752.84;;;26.20;36.18
3082;BME280;1551;51.046;7.010;2023-07-16T11:31:24;100763.16;;;26.34;36.45
3082;BME280;1551;51.046;7.010;2023-07-16T11:34:13;100770.63;;;26.51;36.42
3082;BME280;1551;51.046;7.010;2023-07-16T11:37:10;100779.97;;;26.67;35.95
3082;BME280;1551;51.046;7.010;2023-07-16T11:40:03;100762.03;;;27.28;35.50
3082;BME280;1551;51.046;7.010;2023-07-16T11:42:52;100777.84;;;28.05;34.25
3082;BME280;1551;51.046;7.010;2023-07-16T11:45:47;100781.78;;;27.45;34.21
3082;BME280;1551;51.046;7.010;2023-07-16T11:48:36;100783.22;;;27.38;34.63
3082;BME280;1551;51.046;7.010;2023-07-16T11:51:25;100784.53;;;28.40;33.19
3082;BME280;1551;51.046;7.010;2023-07-16T11:54:14;100783.00;;;28.79;32.54
3082;BME280;1551;51.046;7.010;2023-07-16T11:57:03;100787.28;;;28.07;33.10
3082;BME280;1551;51.046;7.010;2023-07-16T11:59:52;100790.66;;;27.87;33.44
3082;BME280;1551;51.046;7.010;2023-07-16T12:02:41;100777.56;;;27.54;34.14
3082;BME280;1551;51.046;7.010;2023-07-16T12:05:30;100798.19;;;28.66;33.07
3082;BME280;1551;51.046;7.010;2023-07-16T12:08:19;100792.44;;;28.09;33.25
3082;BME280;1551;51.046;7.010;2023-07-16T12:11:08;100772.28;;;27.65;33.85
3082;BME280;1551;51.046;7.010;2023-07-16T12:13:56;100774.34;;;28.15;33.74
3082;BME280;1551;51.046;7.010;2023-07-16T12:16:45;100790.00;;;28.17;33.32
3082;BME280;1551;51.046;7.010;2023-07-16T12:19:35;100769.31;;;28.12;33.58
3082;BME280;1551;51.046;7.010;2023-07-16T12:22:24;100775.84;;;28.49;33.00
3082;BME280;1551;51.046;7.010;2023-07-16T12:25:14;100773.13;;;28.19;33.28
3082;BME280;1551;51.046;7.010;2023-07-16T12:28:05;100778.34;;;27.87;33.38
3082;BME280;1551;51.046;7.010;2023-07-16T12:30:54;100774.75;;;28.52;33.35
3082;BME280;1551;51.046;7.010;2023-07-16T12:33:43;100788.94;;;28.72;32.64
3082;BME280;1551;51.046;7.010;2023-07-16T12:36:32;100786.59;;;28.37;33.15
3082;BME280;1551;51.046;7.010;2023-07-16T12:39:21;100780.75;;;28.02;33.71
3082;BME280;1551;51.046;7.010;2023-07-16T12:42:11;100786.25;;;27.87;33.59
3082;BME280;1551;51.046;7.010;2023-07-16T12:45:01;100792.50;;;28.50;32.96
3082;BME280;1551;51.046;7.010;2023-07-16T12:47:51;100784.69;;;28.59;32.75
3082;BME280;1551;51.046;7.010;2023-07-16T12:50:39;100786.34;;;28.08;33.00
3082;BME280;1551;51.046;7.010;2023-07-16T12:53:28;100791.09;;;28.14;33.15
3082;BME280;1551;51.046;7.010;2023-07-16T12:56:17;100797.31;;;28.77;32.30
3082;BME280;1551;51.046;7.010;2023-07-16T12:59:06;100799.41;;;28.30;32.86
3082;BME280;1551;51.046;7.010;2023-07-16T13:01:55;100791.84;;;28.05;32.90
3082;BME280;1551;51.046;7.010;2023-07-16T13:04:44;100797.66;;;27.66;33.27
3082;BME280;1551;51.046;7.010;2023-07-16T13:07:34;100792.16;;;27.69;33.79
3082;BME280;1551;51.046;7.010;2023-07-16T13:10:23;100797.59;;;27.88;33.25
3082;BME280;1551;51.046;7.010;2023-07-16T13:13:12;100789.59;;;27.78;33.38
3082;BME280;1551;51.046;7.010;2023-07-16T13:16:01;100782.00;;;27.53;33.54
3082;BME280;1551;51.046;7.010;2023-07-16T13:18:50;100790.56;;;27.77;33.69
3082;BME280;1551;51.046;7.010;2023-07-16T13:21:38;100798.47;;;28.52;32.71
3082;BME280;1551;51.046;7.010;2023-07-16T13:24:27;100804.94;;;28.80;31.67
3082;BME280;1551;51.046;7.010;2023-07-16T13:27:21;100801.66;;;27.81;32.84
3082;BME280;1551;51.046;7.010;2023-07-16T13:30:11;100805.16;;;27.70;33.09
3082;BME280;1551;51.046;7.010;2023-07-16T13:33:00;100809.72;;;27.68;33.03
3082;BME280;1551;51.046;7.010;2023-07-16T13:35:50;100817.13;;;27.63;33.21
3082;BME280;1551;51.046;7.010;2023-07-16T13:38:39;100807.78;;;27.81;32.84
3082;BME280;1551;51.046;7.010;2023-07-16T13:41:28;100815.19;;;27.76;32.77
3082;BME280;1551;51.046;7.010;2023-07-16T13:44:16;100820.59;;;27.53;33.11
3082;BME280;1551;51.046;7.010;2023-07-16T13:47:05;100810.06;;;27.53;33.10
3082;BME280;1551;51.046;7.010;2023-07-16T13:49:54;100820.22;;;27.35;33.21
3082;BME280;1551;51.046;7.010;2023-07-16T13:52:43;100817.94;;;27.19;33.78
3082;BME280;1551;51.046;7.010;2023-07-16T13:55:32;100817.94;;;27.19;34.03
3082;BME280;1551;51.046;7.010;2023-07-16T13:58:21;100819.66;;;27.43;33.29
3082;BME280;1551;51.046;7.010;2023-07-16T14:01:10;100816.16;;;27.75;32.98
3082;BME280;1551;51.046;7.010;2023-07-16T14:03:59;100829.09;;;27.56;33.16
3082;BME280;1551;51.046;7.010;2023-07-16T14:06:49;100822.84;;;27.35;33.49
3082;BME280;1551;51.046;7.010;2023-07-16T14:09:38;100808.16;;;27.33;33.79
3082;BME280;1551;51.046;7.010;2023-07-16T14:12:27;100813.47;;;27.98;33.17
3082;BME280;1551;51.046;7.010;2023-07-16T14:15:16;100807.78;;;27.81;32.89
3082;BME280;1551;51.046;7.010;2023-07-16T14:18:05;100794.53;;;27.61;33.16
3082;BME280;1551;51.046;7.010;2023-07-16T14:20:54;100803.50;;;27.58;33.15
3082;BME280;1551;51.046;7.010;2023-07-16T14:23:43;100794.53;;;27.27;33.46
3082;BME280;1551;51.046;7.010;2023-07-16T14:26:32;100808.50;;;27.17;33.47
3082;BME280;1551;51.046;7.010;2023-07-16T14:29:22;100814.66;;;26.83;34.10
3082;BME280;1551;51.046;7.010;2023-07-16T14:32:11;100808.13;;;26.99;34.11
3082;BME280;1551;51.046;7.010;2023-07-16T14:35:01;100808.25;;;27.20;33.59
3082;BME280;1551;51.046;7.010;2023-07-16T14:37:50;100812.34;;;27.24;33.36
3082;BME280;1551;51.046;7.010;2023-07-16T14:40:39;100808.88;;;27.12;33.68
3082;BME280;1551;51.046;7.010;2023-07-16T14:43:28;100804.19;;;27.05;33.70
3082;BME280;1551;51.046;7.010;2023-07-16T14:46:17;100807.91;;;27.13;33.44
3082;BME280;1551;51.046;7.010;2023-07-16T14:49:06;100807.91;;;27.13;33.58
3082;BME280;1551;51.046;7.010;2023-07-16T14:51:54;100792.97;;;27.14;33.70
3082;BME280;1551;51.046;7.010;2023-07-16T14:54:43;100799.69;;;27.40;33.53
3082;BME280;1551;51.046;7.010;2023-07-16T14:57:32;100805.38;;;27.34;33.55
3082;BME280;1551;51.046;7.010;2023-07-16T15:00:21;100807.31;;;27.32;33.58
3082;BME280;1551;51.046;7.010;2023-07-16T15:03:10;100799.69;;;27.51;33.30
3082;BME280;1551;51.046;7.010;2023-07-16T15:06:00;100803.16;;;27.63;33.46
3082;BME280;1551;51.046;7.010;2023-07-16T15:08:49;100793.56;;;27.28;32.94
3082;BME280;1551;51.046;7.010;2023-07-16T15:11:39;100796.66;;;27.11;33.26